Time;durP1;ratioP1;P1;durP2;ratioP2;P2;SDS_P1;SDS_P2;PMS_P1;PMS_P2;Temp;Humidity;BMP_temperature;BMP_pressure;BME280_temperature;BME280_humidity;BME280_pressure;Samples;Min_cycle;Max_cycle;Signal;HPM_P1;HPM_P2
2022/05/10 00:01:33;;;;;;;14.07;6.93;;;13.00;99.90;;;;;;5064153;28;20399;-67
2022/05/10 00:04:00;;;;;;;19.80;8.73;;;13.00;99.90;;;;;;5058786;28;20044;-68
2022/05/10 00:06:29;;;;;;;20.50;8.95;;;13.00;99.90;;;;;;5062507;28;20042;-68
2022/05/10 00:08:55;;;;;;;16.92;8.68;;;12.90;99.90;;;;;;5064878;28;20106;-68
2022/05/10 00:11:20;;;;;;;13.38;8.10;;;12.90;99.90;;;;;;5065015;28;21179;-67
2022/05/10 00:13:46;;;;;;;16.98;8.30;;;12.90;99.90;;;;;;5081267;28;20119;-67
2022/05/10 00:16:15;;;;;;;22.10;9.77;;;12.90;99.90;;;;;;5066626;28;20483;-67
2022/05/10 00:18:41;;;;;;;18.25;9.35;;;12.90;99.90;;;;;;5082950;28;20120;-67
2022/05/10 00:21:14;;;;;;;18.80;10.32;;;12.80;99.90;;;;;;5063298;28;20059;-68
2022/05/10 00:23:39;;;;;;;21.13;9.70;;;12.80;99.90;;;;;;5084998;28;20140;-67
2022/05/10 00:26:05;;;;;;;20.33;10.27;;;12.80;99.90;;;;;;5059798;28;20052;-69
2022/05/10 00:28:30;;;;;;;17.38;9.27;;;12.80;99.90;;;;;;5078571;28;20047;-68
2022/05/10 00:30:56;;;;;;;14.63;10.13;;;12.80;99.90;;;;;;5081196;28;20079;-68
2022/05/10 00:33:26;;;;;;;16.38;9.30;;;12.80;99.90;;;;;;5078356;28;20210;-68
2022/05/10 00:35:52;;;;;;;19.90;10.70;;;12.80;99.90;;;;;;5065879;28;20048;-67
2022/05/10 00:38:19;;;;;;;15.20;10.18;;;12.80;99.90;;;;;;5061597;28;20525;-67
2022/05/10 00:40:45;;;;;;;22.27;10.70;;;12.70;99.90;;;;;;5062892;28;20070;-67
2022/05/10 00:43:28;;;;;;;18.27;10.48;;;12.70;99.90;;;;;;5061063;28;20040;-68
2022/05/10 00:46:15;;;;;;;19.85;10.63;;;12.80;99.90;;;;;;5059784;28;20041;-68
2022/05/10 00:48:50;;;;;;;21.65;10.98;;;12.80;99.90;;;;;;5063815;28;20185;-68
2022/05/10 00:51:34;;;;;;;20.13;10.85;;;12.80;99.90;;;;;;5082467;28;20755;-69
2022/05/10 00:54:15;;;;;;;17.25;11.13;;;12.80;99.90;;;;;;5061772;28;20089;-68
2022/05/10 00:56:51;;;;;;;19.30;12.25;;;12.80;99.90;;;;;;5065958;28;20560;-68
2022/05/10 00:59:29;;;;;;;17.48;10.30;;;12.80;99.90;;;;;;5080999;28;20810;-68
2022/05/10 01:02:07;;;;;;;19.17;11.05;;;12.80;99.90;;;;;;5082228;28;20066;-68
2022/05/10 01:04:55;;;;;;;22.38;11.35;;;12.80;99.90;;;;;;5061960;28;20429;-69
2022/05/10 01:07:32;;;;;;;21.88;11.38;;;12.80;99.90;;;;;;5059116;28;21742;-69
2022/05/10 01:10:07;;;;;;;19.65;10.73;;;12.80;99.90;;;;;;5064518;28;20571;-69
2022/05/10 01:12:48;;;;;;;20.63;11.35;;;12.80;99.90;;;;;;5066612;28;20092;-69
2022/05/10 01:15:22;;;;;;;22.52;12.10;;;12.80;99.90;;;;;;5082386;28;20435;-68
2022/05/10 01:17:51;;;;;;;19.40;11.07;;;12.80;99.90;;;;;;5077745;28;20069;-69
2022/05/10 01:20:20;;;;;;;23.35;12.35;;;12.80;99.90;;;;;;5057291;28;20484;-69
2022/05/10 01:22:51;;;;;;;18.95;11.70;;;12.90;99.90;;;;;;5079766;28;20403;-68
2022/05/10 01:25:25;;;;;;;24.88;12.70;;;12.90;99.90;;;;;;5055572;28;20483;-68
2022/05/10 01:28:10;;;;;;;20.30;11.90;;;12.90;99.90;;;;;;5083394;28;20135;-68
2022/05/10 01:30:37;;;;;;;19.90;12.25;;;12.90;99.90;;;;;;5080030;28;20052;-68
2022/05/10 01:35:53;;;;;;;19.98;11.48;;;12.80;99.90;;;;;;5061309;28;21484;-69
2022/05/10 01:38:33;;;;;;;21.13;12.48;;;12.80;99.90;;;;;;5065219;28;20044;-68
2022/05/10 01:41:23;;;;;;;21.98;12.73;;;12.80;99.90;;;;;;5067837;28;20036;-68
2022/05/10 01:44:04;;;;;;;25.00;12.90;;;12.80;99.90;;;;;;5080400;28;20380;-68
2022/05/10 01:46:32;;;;;;;22.50;12.57;;;12.80;99.90;;;;;;5076866;28;20074;-69
2022/05/10 01:49:22;;;;;;;23.55;13.50;;;12.80;99.90;;;;;;5057740;28;20044;-68
2022/05/10 01:52:02;;;;;;;24.50;12.88;;;12.80;99.90;;;;;;5062180;28;20423;-69
2022/05/10 01:54:39;;;;;;;22.33;12.35;;;12.70;99.90;;;;;;5077309;28;20043;-69
2022/05/10 01:57:09;;;;;;;21.10;12.43;;;12.70;99.90;;;;;;5079599;28;20056;-69
2022/05/10 01:59:34;;;;;;;22.63;12.60;;;12.70;99.90;;;;;;5078290;28;20133;-69
2022/05/10 02:02:03;;;;;;;22.52;12.75;;;12.70;99.90;;;;;;5074145;28;20127;-70
2022/05/10 02:04:34;;;;;;;22.58;12.05;;;12.70;99.90;;;;;;5057278;28;20063;-69
2022/05/10 02:07:09;;;;;;;20.70;12.35;;;12.70;99.90;;;;;;5058450;28;20550;-69
2022/05/10 02:09:40;;;;;;;19.02;11.52;;;12.70;99.90;;;;;;5057598;28;20056;-70
2022/05/10 02:12:10;;;;;;;20.77;13.70;;;12.70;99.90;;;;;;5061486;28;20052;-70
2022/05/10 02:14:42;;;;;;;21.13;12.52;;;12.70;99.90;;;;;;5058610;28;20073;-69
2022/05/10 02:17:25;;;;;;;17.65;11.80;;;12.70;99.90;;;;;;5057283;28;20044;-69
2022/05/10 02:20:14;;;;;;;19.10;12.57;;;12.70;99.90;;;;;;5075425;28;20039;-69
2022/05/10 02:22:54;;;;;;;16.05;11.30;;;12.70;99.90;;;;;;5062119;28;20507;-69
2022/05/10 02:25:25;;;;;;;23.92;11.85;;;12.70;99.90;;;;;;5062741;28;20048;-69
2022/05/10 02:28:17;;;;;;;23.48;12.85;;;12.60;99.90;;;;;;5075572;28;20079;-69
2022/05/10 02:30:44;;;;;;;19.65;13.10;;;12.60;99.90;;;;;;5057458;28;20047;-69
2022/05/10 02:33:13;;;;;;;20.25;12.68;;;12.60;99.90;;;;;;5078563;28;20763;-69
2022/05/10 02:35:57;;;;;;;18.90;11.60;;;12.70;99.90;;;;;;5080653;28;20105;-67
2022/05/10 02:38:30;;;;;;;18.75;13.00;;;12.70;99.90;;;;;;5076535;28;20095;-69
2022/05/10 02:40:59;;;;;;;19.77;12.93;;;12.70;99.90;;;;;;5054376;28;20121;-69
2022/05/10 02:43:31;;;;;;;18.65;12.93;;;12.70;99.90;;;;;;5055925;28;20098;-69
2022/05/10 02:45:57;;;;;;;21.33;12.25;;;12.70;99.90;;;;;;5076583;28;21459;-67
2022/05/10 02:48:36;;;;;;;19.67;12.60;;;12.70;99.90;;;;;;5056982;28;20194;-67
2022/05/10 02:51:03;;;;;;;19.17;12.60;;;12.80;99.90;;;;;;5057957;28;20253;-67
2022/05/10 02:53:29;;;;;;;19.52;11.77;;;12.70;99.90;;;;;;5076248;28;20047;-68
2022/05/10 02:56:01;;;;;;;19.77;12.65;;;12.80;99.90;;;;;;5076473;28;20055;-69
2022/05/10 02:58:37;;;;;;;23.27;13.10;;;12.80;99.90;;;;;;5073933;28;20040;-69
2022/05/10 03:01:16;;;;;;;19.70;13.35;;;12.80;99.90;;;;;;5060127;28;20313;-69
2022/05/10 03:03:42;;;;;;;19.33;12.27;;;12.80;99.90;;;;;;5056889;28;20052;-69
2022/05/10 03:06:08;;;;;;;21.27;11.43;;;12.80;99.90;;;;;;5058500;28;20401;-70
2022/05/10 03:08:34;;;;;;;21.45;12.52;;;12.80;99.90;;;;;;5059633;28;20036;-69
2022/05/10 03:10:59;;;;;;;22.27;11.85;;;12.80;99.90;;;;;;5077599;28;20040;-69
2022/05/10 03:13:26;;;;;;;18.80;12.15;;;12.90;99.90;;;;;;5075855;28;20044;-69
2022/05/10 03:15:51;;;;;;;20.15;12.93;;;12.90;99.90;;;;;;5076977;28;20040;-69
2022/05/10 03:18:17;;;;;;;17.45;12.02;;;12.90;99.90;;;;;;5073180;28;20117;-69
2022/05/10 03:20:43;;;;;;;20.98;12.13;;;12.80;99.90;;;;;;5075356;28;20056;-69
2022/05/10 03:23:09;;;;;;;20.42;13.10;;;12.90;99.90;;;;;;5058521;28;20044;-69
2022/05/10 03:25:35;;;;;;;20.63;12.35;;;12.90;99.90;;;;;;5061303;28;20094;-69
2022/05/10 03:28:01;;;;;;;19.90;12.55;;;12.90;99.90;;;;;;5078646;28;20102;-70
2022/05/10 03:30:29;;;;;;;21.17;12.25;;;12.80;99.90;;;;;;5076717;28;20055;-69
2022/05/10 03:32:55;;;;;;;19.45;12.23;;;12.90;99.90;;;;;;5076528;28;20153;-69
2022/05/10 03:35:22;;;;;;;19.35;12.25;;;12.80;99.90;;;;;;5079283;28;20101;-69
2022/05/10 03:37:48;;;;;;;18.77;10.68;;;12.80;99.90;;;;;;5058584;28;20056;-69
2022/05/10 03:40:15;;;;;;;20.42;11.93;;;12.90;99.90;;;;;;5057440;28;20040;-69
2022/05/10 03:42:49;;;;;;;18.20;12.00;;;12.90;99.90;;;;;;5059726;28;20044;-69
2022/05/10 03:45:18;;;;;;;19.08;12.30;;;12.90;99.90;;;;;;5077735;28;20094;-70
2022/05/10 03:47:45;;;;;;;18.85;12.13;;;12.90;99.90;;;;;;5056611;28;20045;-67
2022/05/10 03:50:13;;;;;;;21.92;12.75;;;12.90;99.90;;;;;;5056843;28;20070;-68
2022/05/10 03:52:40;;;;;;;21.27;12.57;;;12.90;99.90;;;;;;5060151;28;20115;-68
2022/05/10 03:55:08;;;;;;;19.85;11.85;;;12.90;99.90;;;;;;5060823;28;20395;-68
2022/05/10 03:57:34;;;;;;;16.45;12.13;;;12.90;99.90;;;;;;5063571;28;20044;-68
2022/05/10 04:00:00;;;;;;;25.63;12.40;;;13.00;99.90;;;;;;5062786;28;20566;-68
2022/05/10 04:02:26;;;;;;;17.63;11.38;;;13.00;99.90;;;;;;5078192;28;20399;-68
2022/05/10 04:04:52;;;;;;;22.23;12.65;;;13.00;99.90;;;;;;5059245;28;20498;-69
2022/05/10 04:07:18;;;;;;;17.85;12.57;;;13.10;99.90;;;;;;5063924;28;20047;-68
2022/05/10 04:09:43;;;;;;;19.58;12.52;;;13.10;99.90;;;;;;5079767;28;20132;-68
2022/05/10 04:12:09;;;;;;;19.80;12.65;;;13.10;99.90;;;;;;5060576;28;20518;-68
2022/05/10 04:14:35;;;;;;;17.48;12.50;;;13.10;99.90;;;;;;5063598;28;20055;-68
2022/05/10 04:17:01;;;;;;;23.13;11.93;;;13.10;99.90;;;;;;5058161;28;20073;-68
2022/05/10 04:19:27;;;;;;;19.63;11.98;;;13.10;99.90;;;;;;5080752;28;20040;-68
2022/05/10 04:21:52;;;;;;;21.85;12.18;;;13.10;99.90;;;;;;5084072;28;20047;-68
2022/05/10 04:24:18;;;;;;;19.67;11.63;;;13.20;99.90;;;;;;5062201;28;20518;-68
2022/05/10 04:26:44;;;;;;;18.80;11.85;;;13.20;99.90;;;;;;5080992;28;20395;-68
2022/05/10 04:29:10;;;;;;;21.20;12.68;;;13.20;99.90;;;;;;5064890;28;20043;-68
2022/05/10 04:31:35;;;;;;;16.02;12.20;;;13.20;99.90;;;;;;5081776;28;20074;-68
2022/05/10 04:34:01;;;;;;;19.80;12.00;;;13.30;99.90;;;;;;5058872;28;20044;-68
2022/05/10 04:36:27;;;;;;;17.08;11.07;;;13.30;99.90;;;;;;5080352;28;20267;-68
2022/05/10 04:38:53;;;;;;;20.35;11.88;;;13.30;99.90;;;;;;5060658;28;20040;-68
2022/05/10 04:41:30;;;;;;;23.75;11.85;;;13.30;99.90;;;;;;5080582;28;20032;-67
2022/05/10 04:43:59;;;;;;;22.20;12.05;;;13.40;99.90;;;;;;5063206;28;20509;-68
2022/05/10 04:46:27;;;;;;;19.55;11.43;;;13.40;99.90;;;;;;5078052;28;20048;-68
2022/05/10 04:48:52;;;;;;;21.00;12.52;;;13.40;99.90;;;;;;5079226;28;20040;-70
2022/05/10 04:51:18;;;;;;;16.48;11.02;;;13.50;99.90;;;;;;5077868;28;20135;-68
2022/05/10 04:53:44;;;;;;;17.15;11.43;;;13.50;99.90;;;;;;5080994;28;20475;-68
2022/05/10 04:56:10;;;;;;;18.48;11.63;;;13.60;99.90;;;;;;5062491;28;20491;-69
2022/05/10 04:58:36;;;;;;;22.13;10.88;;;13.60;99.90;;;;;;5079117;28;20067;-69
2022/05/10 05:01:08;;;;;;;22.20;12.45;;;13.60;99.90;;;;;;5081745;28;20044;-68
2022/05/10 05:03:34;;;;;;;23.25;11.35;;;13.60;99.90;;;;;;5058936;28;20079;-68
2022/05/10 05:06:00;;;;;;;17.80;10.52;;;13.70;99.90;;;;;;5057545;28;20068;-68
2022/05/10 05:08:26;;;;;;;19.40;12.38;;;13.70;99.90;;;;;;5063962;28;20117;-69
2022/05/10 05:10:53;;;;;;;20.02;10.68;;;13.80;99.90;;;;;;5080420;28;20496;-69
2022/05/10 05:13:19;;;;;;;14.00;10.13;;;13.90;99.90;;;;;;5072094;28;20401;-69
2022/05/10 05:15:45;;;;;;;16.70;9.95;;;13.90;99.90;;;;;;5079369;28;20051;-69
2022/05/10 05:18:10;;;;;;;17.63;10.93;;;13.90;99.90;;;;;;5057507;28;20043;-68
2022/05/10 05:20:41;;;;;;;14.65;10.70;;;14.00;99.90;;;;;;5075841;28;20086;-68
2022/05/10 05:23:10;;;;;;;17.67;9.45;;;14.00;99.90;;;;;;5057318;28;20406;-69
2022/05/10 05:25:36;;;;;;;16.65;10.55;;;14.00;99.90;;;;;;5061480;28;20116;-68
2022/05/10 05:28:03;;;;;;;19.17;10.15;;;14.10;99.90;;;;;;5078748;28;20032;-69
2022/05/10 05:30:28;;;;;;;16.48;10.90;;;14.10;99.90;;;;;;5062120;28;20395;-68
2022/05/10 05:32:54;;;;;;;15.45;10.35;;;14.20;99.90;;;;;;5057455;28;20056;-68
2022/05/10 05:35:20;;;;;;;19.30;10.18;;;14.20;99.90;;;;;;5059337;28;20050;-68
2022/05/10 05:37:46;;;;;;;19.30;10.38;;;14.30;99.90;;;;;;5071090;28;20434;-68
2022/05/10 05:40:16;;;;;;;15.07;9.52;;;14.30;99.90;;;;;;5075111;28;20118;-68
2022/05/10 05:42:42;;;;;;;16.23;10.02;;;14.40;99.90;;;;;;5060649;28;20052;-67
2022/05/10 05:45:11;;;;;;;17.65;10.02;;;14.50;99.90;;;;;;5078500;28;20048;-67
2022/05/10 05:47:37;;;;;;;13.90;10.50;;;14.60;99.90;;;;;;5068429;28;20040;-68
2022/05/10 05:50:04;;;;;;;20.50;11.27;;;14.70;99.90;;;;;;5052423;28;21840;-68
2022/05/10 05:52:30;;;;;;;16.63;10.73;;;14.70;99.90;;;;;;5075942;28;20040;-72
2022/05/10 05:54:56;;;;;;;17.75;10.80;;;14.80;99.90;;;;;;5078448;28;20059;-68
2022/05/10 05:57:22;;;;;;;19.08;10.70;;;14.90;99.90;;;;;;5067191;28;20065;-68
2022/05/10 05:59:48;;;;;;;15.70;10.05;;;15.00;99.90;;;;;;5054991;28;20036;-69
2022/05/10 06:02:19;;;;;;;16.35;10.20;;;15.10;99.90;;;;;;5072631;28;20051;-68
2022/05/10 06:04:45;;;;;;;12.50;9.65;;;15.20;99.90;;;;;;5077649;28;20063;-68
2022/05/10 06:07:11;;;;;;;16.25;10.48;;;15.20;99.90;;;;;;5057350;28;20137;-71
2022/05/10 06:09:37;;;;;;;17.65;10.40;;;15.30;99.90;;;;;;5074304;28;20585;-71
2022/05/10 06:12:05;;;;;;;16.17;10.68;;;15.40;99.90;;;;;;5060595;28;20047;-71
2022/05/10 06:14:32;;;;;;;14.95;10.32;;;15.40;99.90;;;;;;5061926;28;20166;-71
2022/05/10 06:16:58;;;;;;;15.85;10.70;;;15.40;99.90;;;;;;5058684;28;20068;-72
2022/05/10 06:19:25;;;;;;;15.70;10.65;;;15.50;99.90;;;;;;5054600;28;20393;-72
2022/05/10 06:21:51;;;;;;;15.45;10.88;;;15.50;99.90;;;;;;5054298;28;20060;-72
2022/05/10 06:24:17;;;;;;;18.02;10.60;;;15.50;99.90;;;;;;5056947;28;20484;-71
2022/05/10 06:26:43;;;;;;;15.40;10.27;;;15.50;99.90;;;;;;5056152;28;20134;-71
2022/05/10 06:29:08;;;;;;;14.50;10.15;;;15.50;99.90;;;;;;5059535;28;20098;-68
2022/05/10 06:31:36;;;;;;;17.17;10.05;;;15.60;99.90;;;;;;5057221;28;20258;-68
2022/05/10 06:34:02;;;;;;;17.30;10.32;;;15.60;99.90;;;;;;5057690;28;20074;-68
2022/05/10 06:36:28;;;;;;;12.77;9.32;;;15.70;99.90;;;;;;5051906;28;20048;-67
2022/05/10 06:38:53;;;;;;;17.15;11.13;;;15.80;99.90;;;;;;5051802;28;20040;-68
2022/05/10 06:41:19;;;;;;;17.08;10.65;;;15.80;99.90;;;;;;5044554;28;20090;-68
2022/05/10 06:43:44;;;;;;;15.02;10.10;;;15.90;99.90;;;;;;5048021;28;20063;-72
2022/05/10 06:46:13;;;;;;;19.50;10.93;;;15.90;99.90;;;;;;5047422;28;20048;-68
2022/05/10 06:48:39;;;;;;;16.70;10.55;;;15.90;99.90;;;;;;5057426;28;20036;-67
2022/05/10 06:51:09;;;;;;;19.10;10.93;;;16.00;99.90;;;;;;5051902;28;20457;-68
2022/05/10 06:53:36;;;;;;;15.73;10.40;;;16.00;99.90;;;;;;5053524;28;20044;-67
2022/05/10 06:56:02;;;;;;;19.67;11.18;;;16.00;99.90;;;;;;5054167;28;20404;-68
2022/05/10 06:58:28;;;;;;;15.95;10.68;;;15.90;99.90;;;;;;5054531;28;20056;-67
2022/05/10 07:00:53;;;;;;;15.07;11.15;;;15.90;99.90;;;;;;5051608;28;20052;-68
2022/05/10 07:03:28;;;;;;;16.23;10.90;;;15.90;99.90;;;;;;5057696;28;20047;-67
2022/05/10 07:05:54;;;;;;;16.15;10.90;;;16.00;99.90;;;;;;5051058;28;20044;-68
2022/05/10 07:08:20;;;;;;;17.10;10.38;;;16.00;99.90;;;;;;5050137;28;20167;-67
2022/05/10 07:10:46;;;;;;;18.05;10.77;;;16.00;99.90;;;;;;5063022;28;20040;-67
2022/05/10 07:13:20;;;;;;;19.67;10.63;;;16.00;99.90;;;;;;5064163;28;20538;-67
2022/05/10 07:15:47;;;;;;;16.13;10.38;;;16.00;99.90;;;;;;5061296;28;20039;-68
2022/05/10 07:18:13;;;;;;;15.80;10.68;;;16.00;99.90;;;;;;5057333;28;20622;-67
2022/05/10 07:20:39;;;;;;;13.73;10.38;;;16.10;99.90;;;;;;5061749;28;20043;-68
2022/05/10 07:23:10;;;;;;;18.10;10.98;;;16.10;99.90;;;;;;5062297;28;20052;-69
2022/05/10 07:25:37;;;;;;;16.63;11.18;;;16.10;99.90;;;;;;5058145;28;20578;-70
2022/05/10 07:28:03;;;;;;;15.93;11.32;;;16.10;99.90;;;;;;5059184;28;20112;-70
2022/05/10 07:30:30;;;;;;;17.00;10.70;;;16.20;99.90;;;;;;5059196;28;20094;-70
2022/05/10 07:32:57;;;;;;;17.27;11.63;;;16.20;99.90;;;;;;5062468;28;20044;-70
2022/05/10 07:38:14;;;;;;;18.55;11.07;;;16.30;99.90;;;;;;5060619;28;20123;-70
2022/05/10 07:40:41;;;;;;;16.20;10.65;;;16.40;99.90;;;;;;5068527;28;20048;-69
2022/05/10 07:43:07;;;;;;;17.10;10.93;;;16.50;99.90;;;;;;5061077;28;20041;-70
2022/05/10 07:45:33;;;;;;;19.98;10.65;;;16.60;99.90;;;;;;5067083;28;20055;-70
2022/05/10 07:47:59;;;;;;;15.90;10.85;;;16.70;99.90;;;;;;5067420;28;20131;-71
2022/05/10 07:50:25;;;;;;;15.23;10.40;;;16.80;99.90;;;;;;5066184;28;20139;-70
2022/05/10 07:52:51;;;;;;;23.30;10.50;;;16.80;99.90;;;;;;5058816;28;20036;-70
2022/05/10 07:55:18;;;;;;;16.38;9.60;;;17.00;99.90;;;;;;5057287;28;20090;-71
2022/05/10 07:57:44;;;;;;;16.25;9.38;;;17.10;99.90;;;;;;5055300;28;20452;-70
2022/05/10 08:00:12;;;;;;;13.52;9.52;;;17.20;99.90;;;;;;5055588;28;20136;-71
2022/05/10 08:02:42;;;;;;;15.13;8.95;;;17.30;99.90;;;;;;5064237;28;20040;-70
2022/05/10 08:05:10;;;;;;;17.85;9.23;;;17.40;99.90;;;;;;5059115;28;20097;-71
2022/05/10 08:07:35;;;;;;;16.77;8.80;;;17.60;99.90;;;;;;5051076;28;20071;-70
2022/05/10 08:10:01;;;;;;;17.25;8.85;;;17.70;99.90;;;;;;5057294;28;20510;-71
2022/05/10 08:12:27;;;;;;;16.20;9.02;;;17.80;99.90;;;;;;5057035;28;20448;-71
2022/05/10 08:14:53;;;;;;;15.27;8.38;;;17.90;99.90;;;;;;5045796;28;20139;-72
2022/05/10 08:17:18;;;;;;;14.82;8.65;;;18.10;99.90;;;;;;5057404;28;20041;-73
2022/05/10 08:19:45;;;;;;;14.93;8.02;;;18.20;99.90;;;;;;5060248;28;20067;-70
2022/05/10 08:22:11;;;;;;;15.23;7.75;;;18.30;99.90;;;;;;5058086;28;20091;-70
2022/05/10 08:24:36;;;;;;;11.70;7.97;;;18.30;99.90;;;;;;5066299;28;20109;-70
2022/05/10 08:27:02;;;;;;;16.58;7.05;;;18.40;99.90;;;;;;5061227;28;20064;-71
2022/05/10 08:29:28;;;;;;;13.13;6.85;;;18.60;99.90;;;;;;5063193;28;20037;-70
2022/05/10 08:31:53;;;;;;;13.50;6.57;;;18.70;99.90;;;;;;5065846;28;20531;-70
2022/05/10 08:34:19;;;;;;;13.32;7.00;;;18.80;99.90;;;;;;5060929;28;20044;-70
2022/05/10 08:36:46;;;;;;;14.00;7.43;;;19.00;99.90;;;;;;5060759;28;20114;-70
2022/05/10 08:39:13;;;;;;;11.02;6.70;;;19.10;99.90;;;;;;5058537;28;20125;-70
2022/05/10 08:41:46;;;;;;;10.98;6.90;;;19.30;99.90;;;;;;5064258;28;20043;-70
2022/05/10 08:44:18;;;;;;;11.68;6.70;;;19.40;99.90;;;;;;5060701;28;20452;-71
2022/05/10 08:46:48;;;;;;;12.30;6.17;;;19.50;99.90;;;;;;5064739;28;20253;-68
2022/05/10 08:49:25;;;;;;;12.57;6.35;;;19.60;99.90;;;;;;5058281;28;20172;-71
2022/05/10 08:51:52;;;;;;;9.75;5.75;;;19.70;99.90;;;;;;5043901;28;20051;-67
2022/05/10 08:54:18;;;;;;;11.75;6.13;;;19.70;99.90;;;;;;5062537;28;20216;-67
2022/05/10 08:56:48;;;;;;;13.05;6.70;;;19.70;99.90;;;;;;5058888;28;20131;-68
2022/05/10 08:59:28;;;;;;;12.18;5.88;;;19.80;99.90;;;;;;5062097;28;20362;-68
2022/05/10 09:02:01;;;;;;;16.20;5.55;;;19.80;99.90;;;;;;5057476;28;20045;-68
2022/05/10 09:04:44;;;;;;;10.52;5.60;;;19.80;99.90;;;;;;5060335;28;20044;-68
2022/05/10 09:07:44;;;;;;;10.25;5.88;;;19.80;99.90;;;;;;5059402;28;20163;-68
2022/05/10 09:10:19;;;;;;;9.35;5.68;;;19.80;99.90;;;;;;5055115;28;20117;-67
2022/05/10 09:13:06;;;;;;;12.13;6.57;;;19.90;99.90;;;;;;5058215;28;20040;-68
2022/05/10 09:15:38;;;;;;;10.68;6.32;;;20.00;99.90;;;;;;5058252;28;20101;-68
2022/05/10 09:18:20;;;;;;;14.75;6.03;;;20.10;99.90;;;;;;5074624;28;20583;-67
2022/05/10 09:21:10;;;;;;;11.35;6.50;;;20.20;99.90;;;;;;5073586;28;20461;-67
2022/05/10 09:23:58;;;;;;;12.93;7.05;;;20.20;99.90;;;;;;5059907;28;20127;-67
2022/05/10 09:26:30;;;;;;;10.82;6.35;;;20.30;99.90;;;;;;5075893;28;20044;-67
2022/05/10 09:29:32;;;;;;;13.10;6.20;;;20.40;99.90;;;;;;5079216;28;20055;-67
2022/05/10 09:34:53;;;;;;;13.20;6.85;;;20.60;99.90;;;;;;5071088;28;20620;-67
2022/05/10 09:37:57;;;;;;;14.02;7.38;;;20.70;99.90;;;;;;5080225;28;21492;-67
2022/05/10 09:40:35;;;;;;;10.95;6.95;;;20.80;99.90;;;;;;5059838;28;20097;-67
2022/05/10 09:43:32;;;;;;;13.85;6.63;;;20.80;99.90;;;;;;5079872;28;20415;-67
2022/05/10 09:46:21;;;;;;;13.45;6.70;;;20.70;99.90;;;;;;5058250;28;20055;-67
2022/05/10 09:48:50;;;;;;;12.10;7.07;;;20.70;99.90;;;;;;5058919;28;22507;-67
2022/05/10 09:51:34;;;;;;;15.05;7.90;;;20.70;99.90;;;;;;5065831;28;20067;-67
2022/05/10 09:54:17;;;;;;;16.45;8.10;;;20.60;99.90;;;;;;5075923;28;20035;-70
2022/05/10 09:56:44;;;;;;;12.63;7.88;;;20.60;99.90;;;;;;5072549;28;20047;-68
2022/05/10 09:59:22;;;;;;;17.40;7.60;;;20.60;99.90;;;;;;5062070;28;20562;-67
2022/05/10 10:01:50;;;;;;;20.45;8.18;;;20.60;99.90;;;;;;5076950;28;20063;-67
2022/05/10 10:04:25;;;;;;;12.43;7.38;;;20.60;99.90;;;;;;5062905;28;20127;-67
2022/05/10 10:07:03;;;;;;;13.75;8.43;;;20.50;99.90;;;;;;5050351;28;20214;-67
2022/05/10 10:09:31;;;;;;;13.45;8.23;;;20.50;99.90;;;;;;5073931;28;20059;-67
2022/05/10 10:11:57;;;;;;;16.75;8.35;;;20.50;99.90;;;;;;5055551;28;20047;-67
2022/05/10 10:14:38;;;;;;;12.75;8.27;;;20.50;99.90;;;;;;5075718;28;20056;-67
2022/05/10 10:17:04;;;;;;;20.88;8.30;;;20.40;99.90;;;;;;5054148;28;20436;-67
2022/05/10 10:19:44;;;;;;;13.50;8.00;;;20.40;99.90;;;;;;5064780;28;20052;-67
2022/05/10 10:22:16;;;;;;;17.70;9.48;;;20.40;99.90;;;;;;5054033;28;20130;-67
2022/05/10 10:24:59;;;;;;;14.38;8.07;;;20.40;99.90;;;;;;5081363;28;20050;-67
2022/05/10 10:27:49;;;;;;;18.60;10.75;;;20.30;99.90;;;;;;5054671;28;20051;-68
2022/05/10 10:30:32;;;;;;;16.80;8.75;;;20.30;99.90;;;;;;5075881;28;20508;-67
2022/05/10 10:33:23;;;;;;;16.52;9.85;;;20.20;99.90;;;;;;5059639;28;20043;-69
2022/05/10 10:35:57;;;;;;;16.05;10.20;;;20.20;99.90;;;;;;5072379;28;20048;-67
2022/05/10 10:38:40;;;;;;;13.85;9.57;;;20.20;99.90;;;;;;5049278;28;20948;-67
2022/05/10 10:41:10;;;;;;;14.60;8.65;;;20.20;99.90;;;;;;5080706;28;20052;-68
2022/05/10 10:44:08;;;;;;;14.65;7.93;;;20.20;99.90;;;;;;5079647;28;20048;-67
2022/05/10 10:47:00;;;;;;;17.88;6.97;;;20.30;99.90;;;;;;5060237;28;20063;-67
2022/05/10 10:49:35;;;;;;;13.55;6.85;;;20.40;99.90;;;;;;5063966;28;20036;-66
2022/05/10 10:52:01;;;;;;;20.45;6.85;;;20.50;99.90;;;;;;5052057;28;20036;-70
2022/05/10 10:54:29;;;;;;;12.00;6.28;;;20.60;99.90;;;;;;5076783;28;20385;-67
2022/05/10 10:57:06;;;;;;;13.55;6.03;;;20.60;99.90;;;;;;5054897;28;20040;-68
2022/05/10 11:00:01;;;;;;;12.18;5.53;;;20.70;99.90;;;;;;5073946;28;20044;-67
2022/05/10 11:02:51;;;;;;;11.82;5.75;;;20.60;99.90;;;;;;5052250;28;20121;-68
2022/05/10 11:05:54;;;;;;;11.27;4.65;;;20.60;99.90;;;;;;5055373;28;20044;-67
2022/05/10 11:08:31;;;;;;;11.70;6.00;;;20.50;99.90;;;;;;5060512;28;20334;-67
2022/05/10 11:11:03;;;;;;;10.13;5.07;;;20.50;99.90;;;;;;5061904;28;20036;-67
2022/05/10 11:13:49;;;;;;;11.02;5.18;;;20.60;99.90;;;;;;5080214;28;20089;-67
2022/05/10 11:16:20;;;;;;;9.70;5.43;;;20.60;99.90;;;;;;5074341;28;20052;-68
2022/05/10 11:18:54;;;;;;;8.95;4.93;;;20.70;99.90;;;;;;5073010;28;20384;-67
2022/05/10 11:21:43;;;;;;;9.75;5.22;;;20.80;99.90;;;;;;5054828;28;20056;-67
2022/05/10 11:24:20;;;;;;;10.18;4.60;;;20.80;99.90;;;;;;5052342;28;20134;-68
2022/05/10 11:27:08;;;;;;;9.88;4.93;;;20.90;99.90;;;;;;5057242;28;20044;-67
2022/05/10 11:29:49;;;;;;;9.10;4.28;;;20.90;99.90;;;;;;5081409;28;20072;-67
2022/05/10 11:32:17;;;;;;;10.88;3.88;;;21.00;99.90;;;;;;5077531;28;20052;-67
2022/05/10 11:35:15;;;;;;;9.95;3.60;;;21.00;99.90;;;;;;5048203;28;20052;-66
2022/05/10 11:37:58;;;;;;;8.70;3.47;;;21.10;99.90;;;;;;5073402;28;20059;-67
2022/05/10 11:40:56;;;;;;;9.48;3.60;;;21.20;99.90;;;;;;5063050;28;20055;-67
2022/05/10 11:43:56;;;;;;;7.28;3.13;;;21.20;99.90;;;;;;5071241;28;20052;-67
2022/05/10 11:46:49;;;;;;;14.25;3.88;;;21.20;99.90;;;;;;5052842;28;20510;-66
2022/05/10 11:49:27;;;;;;;6.70;3.13;;;21.20;99.90;;;;;;5072744;28;20563;-67
2022/05/10 11:52:01;;;;;;;16.85;4.18;;;21.20;99.90;;;;;;5070269;28;20067;-68
2022/05/10 11:54:37;;;;;;;9.43;3.10;;;21.20;99.90;;;;;;5075274;28;20051;-66
2022/05/10 11:57:04;;;;;;;7.50;2.92;;;21.20;99.90;;;;;;5070787;28;20426;-67
2022/05/10 11:59:36;;;;;;;4.82;2.40;;;21.40;99.90;;;;;;5056018;28;20681;-67
2022/05/10 12:02:03;;;;;;;4.05;2.13;;;21.40;99.90;;;;;;5050346;28;20122;-67
2022/05/10 12:04:34;;;;;;;5.43;1.92;;;21.40;99.90;;;;;;5057685;28;20538;-67
2022/05/10 12:07:19;;;;;;;6.72;1.63;;;21.50;99.90;;;;;;5063418;28;20047;-67
2022/05/10 12:10:01;;;;;;;6.97;1.70;;;21.50;97.10;;;;;;5080947;28;20071;-67
2022/05/10 12:12:32;;;;;;;6.75;1.50;;;21.40;95.40;;;;;;5080960;28;20047;-68
2022/05/10 12:21:23;;;;;;;5.55;1.65;;;21.10;92.40;;;;;;5086352;28;20044;-67
2022/05/10 12:24:09;;;;;;;4.47;1.70;;;20.90;92.20;;;;;;5079413;28;20036;-67
2022/05/10 12:26:48;;;;;;;8.77;1.75;;;20.70;92.00;;;;;;5085455;28;20063;-67
2022/05/10 12:29:34;;;;;;;4.18;1.90;;;20.50;92.40;;;;;;5063983;28;20723;-67
2022/05/10 12:32:02;;;;;;;6.00;2.40;;;20.30;92.50;;;;;;5069399;28;20067;-67
2022/05/10 12:34:39;;;;;;;6.82;1.98;;;20.30;93.80;;;;;;5081492;28;20082;-67
2022/05/10 12:37:26;;;;;;;8.77;1.98;;;20.20;94.40;;;;;;5083264;28;20089;-67
2022/05/10 12:40:10;;;;;;;4.95;1.98;;;20.20;95.40;;;;;;5079757;28;20055;-66
2022/05/10 12:42:53;;;;;;;5.85;1.73;;;20.10;95.70;;;;;;5064348;28;20044;-66
2022/05/10 12:45:40;;;;;;;7.38;2.60;;;20.00;95.50;;;;;;5063387;28;20044;-70
2022/05/10 12:48:10;;;;;;;7.57;2.80;;;19.80;96.60;;;;;;5082914;28;20132;-68
2022/05/10 12:51:03;;;;;;;6.90;3.80;;;19.70;98.60;;;;;;5082407;28;20210;-67
2022/05/10 12:53:41;;;;;;;8.05;3.58;;;19.70;99.90;;;;;;5067239;28;20048;-68
2022/05/10 12:56:28;;;;;;;7.72;3.20;;;19.50;99.90;;;;;;5079777;28;20124;-68
2022/05/10 12:58:58;;;;;;;5.35;2.72;;;19.40;99.90;;;;;;5064177;28;20039;-67
2022/05/10 13:01:27;;;;;;;8.88;2.80;;;19.20;99.90;;;;;;5063381;28;20063;-67
2022/05/10 13:04:15;;;;;;;5.40;3.15;;;19.20;99.90;;;;;;5081031;28;20052;-67
2022/05/10 13:06:58;;;;;;;8.75;3.45;;;19.30;99.90;;;;;;5081127;28;20048;-67
2022/05/10 13:09:41;;;;;;;9.20;2.95;;;19.30;99.90;;;;;;5060883;28;20418;-67
2022/05/10 13:12:21;;;;;;;9.77;3.17;;;19.30;99.90;;;;;;5057253;28;20059;-68
2022/05/10 13:14:52;;;;;;;9.38;3.22;;;19.30;99.90;;;;;;5080601;28;20152;-67